Hauptseite
METAR-TAF:

METAR-TAF

Flughäfen :

Flughafen Bornholm

Rønne, Dänemark

Breite: 55-04N, Länge: 014-45E, Höhe: 16 m

Beobachtung

Neuester Wetterbericht von vor 12 Minuten, um 00:20 UTC
Wind 3 kt aus Süd/Südwest
Temperatur 15°C
Luftfeuchtigkeit 94%
Luftdruck 1010 hPa
Sichtweite 10 km oder mehr

METAR: EKRN 170020Z AUTO 20003KT 9999 BKN110/// BKN150/// 15/14 Q1010

Zeit: 02:32 (00:32 UTC)

Prognose

Neuester Wetterbericht von vor 1 Stunde und 30 Minuten, um 23:02 UTC
Gültige Prognose vom 17 um 00 UTC bis 17 um 09 UTC
Wind 12 kt aus Ost/Südost
Sichtweite 10 km oder mehr
Leicht bewölkt in der Höhe von 2500 ft
Durchbrochene Bewölkung in der Höhe von 7000 ft
Zeitweise
vom 17 um 00 UTC bis 17 um 04 UTC
Sichtweite: 4000 m
Aufgelockert bewölkt in der Höhe von 2000 ft, Kumulonimbus.
Regenschauer,

TAF: EKRN 162302Z 1700/1709 11012KT 9999 FEW025 BKN070 TEMPO 1700/1704 4000 SHRA SCT020CB

Wetterbeobachtungen und Prognosen von mehr als 4000 Flughäfen (METAR und TAF Bericht).

Die verfügbaren Stationen werden durch gelbe und rote Markierungen auf der Karte dargestellt.

Führen Sie die Maus auf sie, um den Namen der Station zu sehen.

Darauf klicken, um die Beobachtung von Wetterbeobachtungen und Prognosen zu sehen.

Um die Karte zu ändern : klicken Sie auf den grünen Tasten mit einem schwarzen Kreuz Zum Vergrößern, auf den grünen Button mit einem Gedankenstrich zu verkleinern, oder auf die grünen Pfeile für benachbarte Karten.


METAR-TAF: